This is the latest recevied weather packets stored in our database for station/object WA1TYB-13. If no packets are shown the sender has not sent any weather packets the latest 10 day(s).
| Time | Temp. | Humidity | Pressure | Rain* | Wind** | Luminosity | Snow |
|---|---|---|---|---|---|---|---|
| 1777454161 | 1.11° C | 75% | 1022.5 hPa | 0 mm | - | 0 W/m² | - |
| 1777453858 | 2.22° C | 73% | 1022.3 hPa | 0 mm | - | 0 W/m² | - |
| 1777453555 | 2.22° C | 74% | 1022.5 hPa | 0 mm | - | 0 W/m² | - |
| 1777453252 | 1.67° C | 76% | 1022.5 hPa | 0 mm | - | 0 W/m² | - |
| 1777452949 | 1.67° C | 75% | 1022.3 hPa | 0 mm | - | 0 W/m² | - |
| 1777452646 | 2.22° C | 75% | 1022.4 hPa | 0 mm | - | 0 W/m² | - |
| 1777452342 | 1.67° C | 75% | 1022.4 hPa | 0 mm | - | 0 W/m² | - |
| 1777452038 | 2.22° C | 75% | 1022.5 hPa | 0 mm | - | 0 W/m² | - |
| 1777451734 | 2.22° C | 74% | 1022.2 hPa | 0 mm | - | 0 W/m² | - |
| 1777451429 | 2.22° C | 74% | 1022.2 hPa | 0 mm | - | 0 W/m² | - |
| 1777451125 | 2.78° C | 74% | 1022.3 hPa | 0 mm | - | 0 W/m² | - |
| 1777450822 | 2.22° C | 74% | 1022.5 hPa | 0 mm | - | 0 W/m² | - |
| 1777450516 | 2.22° C | 74% | 1022.3 hPa | 0 mm | - | 0 W/m² | - |
| 1777450214 | 2.22° C | 74% | 1022.3 hPa | 0 mm | - | 0 W/m² | - |
| 1777449909 | 2.22° C | 74% | 1022.6 hPa | 0 mm | - | 0 W/m² | - |
| 1777449606 | 2.22° C | 75% | 1022.2 hPa | 0 mm | - | 0 W/m² | - |
| 1777449302 | 2.22° C | 76% | 1022.3 hPa | 0 mm | - | 0 W/m² | - |
| 1777448997 | 1.67° C | 77% | 1022.3 hPa | 0 mm | - | 0 W/m² | - |
| 1777448695 | 1.67° C | 76% | 1022.3 hPa | 0 mm | - | 0 W/m² | - |
| 1777448391 | 2.78° C | 74% | 1022.2 hPa | 0 mm | - | 0 W/m² | - |
| 1777448088 | 3.89° C | 71% | 1022.2 hPa | 0 mm | - | 0 W/m² | - |
| 1777447783 | 3.33° C | 73% | 1022.3 hPa | 0 mm | - | 0 W/m² | - |
| 1777447479 | 3.33° C | 73% | 1022.3 hPa | 0 mm | - | 0 W/m² | - |
| 1777447176 | 3.33° C | 73% | 1022.2 hPa | 0 mm | - | 0 W/m² | - |
| 1777446875 | 2.78° C | 74% | 1022.4 hPa | 0 mm | - | 0 W/m² | - |
* Rain latest hour (hover to see other rain measurements)
** Current wind speed in m/s (hover to see current wind gust speed)